Terminal Aerodrome Forecast
Issued by NWS

Home | Current Version | Previous Version | Text Only | Print | Product List | Glossary On
Versions: 1 2 3 4 5 6 7 8 9 10 11 12 13 14 15 16 17 18
000
FTUS43 KSGF 242100 AAA
TAFJLN
TAF AMD
KJLN 242109Z 2421/2518 29010KT P6SM OVC020
      TEMPO 2502/2504 SCT030
     FM250400 20009KT P6SM SKC
     FM251500 19020G30KT P6SM SKC=

USA.gov is the U.S. government's official web portal to all federal, state and local government web resources and services.